^^
Station Historical Data
 
Daily Summary for February 06, 2016 Units:  English    Metric   Both
« Previous Day
Next Day »
Daily Weekly Monthly Yearly Custom
  Current: High: Low: Average:
Temperature: 29.1 °F 43.6 °F 19.7 °F 31 °F
Dew Point: 23.4 °F 28.0 °F 16.7 °F 22.6 °F
Humidity: 79% 90% 54% 72%
Wind Speed: 0.0mph 11.5mph 0.0mph 5.1mph
Wind Gust: 0.0mph 11.5mph - -
WindCalm - - SSW
Pressure: 30.23 in 30.39 in 30.22 in -
Precipitation: 0.00 in      
Historical Graphs
 
 
Tabular Data for February 06, 2016
Time Temperature Dew Point Pressure Wind Wind Speed Wind Gust Humidity Rainfall Rate (Hourly)
00:00 25.4 °F 18.9 °F 30.34 in Calm     76% 0.00 in
00:05 25.4 °F 19.2 °F 30.34 in Calm     77% 0.00 in
00:10 25.6 °F 19.4 °F 30.34 in Calm     77% 0.00 in
00:15 25.6 °F 19.4 °F 30.33 in Calm     77% 0.00 in
00:20 25.5 °F 19.3 °F 30.34 in Calm     77% 0.00 in
00:25 25.5 °F 19.3 °F 30.34 in Calm     77% 0.00 in
00:30 25.4 °F 19.2 °F 30.33 in Calm     77% 0.00 in
00:35 25.3 °F 19.1 °F 30.33 in Calm     77% 0.00 in
00:40 25.2 °F 19.3 °F 30.33 in Calm     78% 0.00 in
00:45 25.1 °F 19.2 °F 30.33 in Calm     78% 0.00 in
00:50 25.2 °F 19.3 °F 30.33 in Calm     78% 0.00 in
00:55 25.2 °F 19.3 °F 30.33 in Calm     78% 0.00 in
01:00 25.1 °F 19.2 °F 30.33 in Calm     78% 0.00 in
01:05 24.9 °F 19.3 °F 30.33 in Calm     79% 0.00 in
01:10 24.7 °F 19.1 °F 30.33 in Calm     79% 0.00 in
01:15 24.5 °F 18.9 °F 30.33 in Calm     79% 0.00 in
01:20 24.3 °F 18.7 °F 30.33 in Calm     79% 0.00 in
01:25 24.0 °F 18.7 °F 30.34 in Calm     80% 0.00 in
01:30 23.8 °F 18.5 °F 30.34 in Calm     80% 0.00 in
01:35 23.8 °F 18.8 °F 30.34 in Calm     81% 0.00 in
01:40 23.6 °F 18.6 °F 30.34 in Calm     81% 0.00 in
01:45 23.6 °F 18.6 °F 30.34 in Calm     81% 0.00 in
01:50 23.7 °F 19.0 °F 30.34 in Calm     82% 0.00 in
02:00 23.6 °F 18.6 °F 30.34 in Calm     81% 0.00 in
02:05 23.6 °F 18.6 °F 30.34 in Calm     81% 0.00 in
02:15 23.4 °F 18.4 °F 30.33 in Calm     81% 0.00 in
02:20 23.2 °F 18.2 °F 30.33 in Calm     81% 0.00 in
02:25 22.9 °F 18.2 °F 30.33 in Calm     82% 0.00 in
02:30 22.8 °F 18.4 °F 30.33 in Calm     83% 0.00 in
02:35 22.7 °F 18.3 °F 30.33 in Calm     83% 0.00 in
02:40 22.4 °F 18.0 °F 30.33 in Calm     83% 0.00 in
02:50 21.9 °F 17.5 °F 30.34 in NW 1.2 mph 1.2 mph 83% 0.00 in
02:55 21.8 °F 17.7 °F 30.33 in Calm     84% 0.00 in
03:00 21.8 °F 18.0 °F 30.33 in Calm     85% 0.00 in
03:05 21.7 °F 17.9 °F 30.33 in Calm     85% 0.00 in
03:10 21.6 °F 17.8 °F 30.33 in Calm     85% 0.00 in
03:15 21.5 °F 17.7 °F 30.33 in Calm     85% 0.00 in
03:20 21.3 °F 17.5 °F 30.33 in Calm     85% 0.00 in
03:25 21.3 °F 17.5 °F 30.33 in Calm     85% 0.00 in
03:30 21.2 °F 17.7 °F 30.33 in Calm     86% 0.00 in
03:35 21.2 °F 17.7 °F 30.33 in Calm     86% 0.00 in
03:40 21.1 °F 17.3 °F 30.33 in Calm     85% 0.00 in
03:45 20.9 °F 17.4 °F 30.33 in Calm     86% 0.00 in
03:50 21.0 °F 17.5 °F 30.33 in Calm     86% 0.00 in
03:55 21.1 °F 17.6 °F 30.33 in Calm     86% 0.00 in
04:00 21.1 °F 17.6 °F 30.33 in Calm     86% 0.00 in
04:05 21.2 °F 17.7 °F 30.33 in Calm     86% 0.00 in
04:10 21.2 °F 17.7 °F 30.34 in Calm     86% 0.00 in
04:15 21.3 °F 17.8 °F 30.34 in Calm     86% 0.00 in
04:20 21.4 °F 17.9 °F 30.34 in Calm     86% 0.00 in
04:25 21.5 °F 18.0 °F 30.34 in Calm     86% 0.00 in
04:30 21.6 °F 18.1 °F 30.34 in Calm     86% 0.00 in
04:35 21.6 °F 17.8 °F 30.34 in Calm     85% 0.00 in
04:40 21.5 °F 17.7 °F 30.34 in Calm     85% 0.00 in
04:45 21.4 °F 17.6 °F 30.34 in Calm     85% 0.00 in
04:50 21.3 °F 17.8 °F 30.34 in Calm     86% 0.00 in
04:55 21.2 °F 17.7 °F 30.34 in Calm     86% 0.00 in
05:00 21.1 °F 17.6 °F 30.35 in Calm     86% 0.00 in
05:05 21.1 °F 17.6 °F 30.35 in Calm     86% 0.00 in
05:10 21.0 °F 17.5 °F 30.35 in Calm     86% 0.00 in
05:15 21.1 °F 17.8 °F 30.35 in Calm     87% 0.00 in
05:20 21.1 °F 17.8 °F 30.35 in Calm     87% 0.00 in
05:25 21.0 °F 17.7 °F 30.35 in NW 1.2 mph   87% 0.00 in
05:35 21.5 °F 18.2 °F 30.35 in Calm     87% 0.00 in
05:40 21.7 °F 18.4 °F 30.35 in Calm     87% 0.00 in
05:45 21.8 °F 18.5 °F 30.35 in Calm     87% 0.00 in
05:50 21.8 °F 18.3 °F 30.35 in Calm     86% 0.00 in
05:55 21.7 °F 18.2 °F 30.35 in Calm     86% 0.00 in
06:00 21.6 °F 18.1 °F 30.36 in Calm     86% 0.00 in
06:05 21.5 °F 18.0 °F 30.35 in Calm     86% 0.00 in
06:10 21.3 °F 17.8 °F 30.35 in Calm     86% 0.00 in
06:15 21.2 °F 17.7 °F 30.35 in Calm     86% 0.00 in
06:20 21.1 °F 17.6 °F 30.35 in Calm     86% 0.00 in
06:25 21.0 °F 17.7 °F 30.36 in Calm     87% 0.00 in
06:30 21.1 °F 17.8 °F 30.36 in Calm     87% 0.00 in
06:35 21.1 °F 17.8 °F 30.36 in Calm     87% 0.00 in
06:45 20.9 °F 17.6 °F 30.36 in Calm     87% 0.00 in
06:50 20.8 °F 17.5 °F 30.36 in Calm     87% 0.00 in
06:55 20.6 °F 17.3 °F 30.36 in Calm     87% 0.00 in
07:00 20.5 °F 17.2 °F 30.36 in Calm     87% 0.00 in
07:10 20.2 °F 17.0 °F 30.37 in Calm     87% 0.00 in
07:15 20.1 °F 17.1 °F 30.38 in Calm     88% 0.00 in
07:20 20.0 °F 17.0 °F 30.38 in Calm     88% 0.00 in
07:25 19.9 °F 16.9 °F 30.38 in Calm     88% 0.00 in
07:30 19.8 °F 16.8 °F 30.38 in Calm     88% 0.00 in
07:35 19.7 °F 16.7 °F 30.38 in Calm     88% 0.00 in
07:40 19.8 °F 17.1 °F 30.38 in Calm     89% 0.00 in
07:45 20.0 °F 17.3 °F 30.38 in Calm     89% 0.00 in
07:50 20.1 °F 17.4 °F 30.38 in Calm     89% 0.00 in
07:55 20.3 °F 17.6 °F 30.38 in Calm     89% 0.00 in
08:00 20.4 °F 17.9 °F 30.38 in Calm     90% 0.00 in
08:05 20.6 °F 18.1 °F 30.38 in Calm     90% 0.00 in
08:15 21.1 °F 18.6 °F 30.39 in Calm     90% 0.00 in
08:20 21.5 °F 19.0 °F 30.39 in Calm     90% 0.00 in
08:25 22.0 °F 19.5 °F 30.39 in Calm     90% 0.00 in
08:30 22.6 °F 20.1 °F 30.38 in Calm     90% 0.00 in
08:35 23.6 °F 21.1 °F 30.39 in Calm     90% 0.00 in
08:40 24.3 °F 21.5 °F 30.39 in Calm     89% 0.00 in
08:45 24.9 °F 21.8 °F 30.39 in Calm     88% 0.00 in
08:50 25.8 °F 22.2 °F 30.39 in Calm     86% 0.00 in
08:55 26.8 °F 22.9 °F 30.38 in Calm     85% 0.00 in
09:00 27.8 °F 23.0 °F 30.38 in Calm     82% 0.00 in
09:05 28.5 °F 23.1 °F 30.38 in Calm     80% 0.00 in
09:10 29.1 °F 23.1 °F 30.38 in Calm     78% 0.00 in
09:15 29.7 °F 23.1 °F 30.38 in Calm     76% 0.00 in
09:20 30.4 °F 23.4 °F 30.38 in Calm     75% 0.00 in
09:25 30.6 °F 23.0 °F 30.37 in Calm     73% 0.00 in
09:31 30.9 °F 23.3 °F 30.37 in Calm     73% 0.00 in
09:36 31.4 °F 23.4 °F 30.37 in Calm     72% 0.00 in
09:41 31.8 °F 23.8 °F 30.37 in Calm     72% 0.00 in
09:46 32.2 °F 23.8 °F 30.38 in Calm     71% 0.00 in
09:56 33.0 °F 24.3 °F 30.37 in NW 1.2 mph   70% 0.00 in
10:01 33.9 °F 24.8 °F 30.37 in Calm     69% 0.00 in
10:06 34.5 °F 24.7 °F 30.37 in NW 1.0 mph   67% 0.00 in
10:11 34.5 °F 24.3 °F 30.37 in NW 1.2 mph 1.2 mph 66% 0.00 in
10:16 34.4 °F 24.2 °F 30.37 in NW 1.2 mph 1.2 mph 66% 0.00 in
10:21 34.4 °F 24.2 °F 30.37 in NW 2.0 mph 2.0 mph 66% 0.00 in
10:26 34.4 °F 24.2 °F 30.37 in Calm     66% 0.00 in
10:31 35.0 °F 24.8 °F 30.37 in Calm     66% 0.00 in
10:36 35.3 °F 24.7 °F 30.37 in NW 1.2 mph   65% 0.00 in
10:41 35.2 °F 24.6 °F 30.36 in Calm     65% 0.00 in
10:46 35.5 °F 24.9 °F 30.37 in Calm     65% 0.00 in
10:51 35.9 °F 25.3 °F 30.36 in Calm     65% 0.00 in
10:56 36.3 °F 25.7 °F 30.36 in Calm     65% 0.00 in
11:01 36.9 °F 25.9 °F 30.36 in Calm     64% 0.00 in
11:06 37.5 °F 25.7 °F 30.36 in NW 2.3 mph 2.3 mph 62% 0.00 in
11:11 37.6 °F 25.7 °F 30.35 in WSW 3.5 mph   62% 0.00 in
11:16 37.7 °F 26.6 °F 30.36 in Calm     64% 0.00 in
11:21 38.1 °F 26.6 °F 30.35 in WSW 1.2 mph   63% 0.00 in
11:26 38.4 °F 26.5 °F 30.35 in WSW 2.0 mph 2.0 mph 62% 0.00 in
11:31 38.1 °F 25.0 °F 30.34 in WSW 1.2 mph   59% 0.00 in
11:36 38.2 °F 25.9 °F 30.34 in SW 5.0 mph 5.0 mph 61% 0.00 in
11:41 38.3 °F 26.4 °F 30.34 in South 2.0 mph 2.0 mph 62% 0.00 in
11:46 38.7 °F 26.0 °F 30.33 in SSW 2.3 mph 2.3 mph 60% 0.00 in
11:51 38.8 °F 26.5 °F 30.33 in SSW 2.3 mph 2.3 mph 61% 0.00 in
11:56 38.9 °F 26.2 °F 30.32 in Calm     60% 0.00 in
12:01 39.4 °F 26.7 °F 30.32 in South 4.0 mph 4.0 mph 60% 0.00 in
12:06 39.2 °F 25.6 °F 30.32 in SSW 3.5 mph 3.5 mph 58% 0.00 in
12:11 38.8 °F 25.7 °F 30.31 in SW 1.2 mph   59% 0.00 in
12:16 39.1 °F 26.0 °F 30.31 in Calm     59% 0.00 in
12:21 39.3 °F 26.2 °F 30.31 in Calm     59% 0.00 in
12:26 39.7 °F 26.5 °F 30.31 in SW 2.3 mph 2.3 mph 59% 0.00 in
12:31 40.1 °F 26.9 °F 30.30 in Calm     59% 0.00 in
12:36 40.1 °F 26.1 °F 30.29 in SW 3.5 mph 3.5 mph 57% 0.00 in
12:41 40.2 °F 26.6 °F 30.29 in SW 2.3 mph 2.3 mph 58% 0.00 in
12:46 40.7 °F 27.1 °F 30.29 in SW 3.5 mph 3.5 mph 58% 0.00 in
12:51 41.1 °F 27.0 °F 30.28 in South 5.8 mph 5.8 mph 57% 0.00 in
12:56 41.3 °F 27.6 °F 30.28 in SSW 7.0 mph 7.0 mph 58% 0.00 in
13:01 41.4 °F 27.7 °F 30.28 in WSW 2.0 mph 2.0 mph 58% 0.00 in
13:06 41.7 °F 27.1 °F 30.28 in SSW 8.0 mph 8.0 mph 56% 0.00 in
13:11 41.8 °F 27.2 °F 30.27 in SW 7.0 mph 7.0 mph 56% 0.00 in
13:16 41.9 °F 27.8 °F 30.27 in SW 5.0 mph 5.0 mph 57% 0.00 in
13:21 42.2 °F 27.2 °F 30.26 in WSW 3.5 mph 3.5 mph 55% 0.00 in
13:26 42.6 °F 27.5 °F 30.26 in SW 4.6 mph 4.6 mph 55% 0.00 in
13:31 42.8 °F 27.3 °F 30.26 in SSW 5.0 mph 5.0 mph 54% 0.00 in
13:36 43.0 °F 27.5 °F 30.25 in WSW 4.6 mph 4.6 mph 54% 0.00 in
13:41 43.3 °F 27.8 °F 30.25 in SSW 4.6 mph 4.6 mph 54% 0.00 in
13:46 43.3 °F 27.8 °F 30.25 in WSW 4.6 mph 4.6 mph 54% 0.00 in
13:51 43.4 °F 27.8 °F 30.25 in South 3.5 mph 3.5 mph 54% 0.00 in
13:56 43.6 °F 28.0 °F 30.25 in SW 4.0 mph 4.0 mph 54% 0.00 in
14:01 43.2 °F 27.7 °F 30.24 in SW 9.2 mph 9.2 mph 54% 0.00 in
14:06 42.5 °F 27.0 °F 30.24 in SW 4.6 mph 4.6 mph 54% 0.00 in
14:11 42.2 °F 27.6 °F 30.24 in SSW 8.1 mph 8.1 mph 56% 0.00 in
14:16 42.2 °F 27.2 °F 30.24 in SSE 11.5 mph 11.5 mph 55% 0.00 in
14:21 42.3 °F 26.8 °F 30.24 in SSW 8.1 mph 8.1 mph 54% 0.00 in
14:26 42.3 °F 26.8 °F 30.24 in SSE 6.0 mph 6.0 mph 54% 0.00 in
14:31 42.0 °F 27.0 °F 30.23 in SW 10.4 mph 10.4 mph 55% 0.00 in
14:36 41.6 °F 26.6 °F 30.23 in SW 5.8 mph 5.8 mph 55% 0.00 in
14:41 41.5 °F 26.1 °F 30.23 in South 9.2 mph 9.2 mph 54% 0.00 in
14:46 41.6 °F 26.6 °F 30.23 in SSW 6.9 mph 6.9 mph 55% 0.00 in
14:51 41.5 °F 26.1 °F 30.22 in SSW 10.0 mph 10.0 mph 54% 0.00 in
14:56 41.4 °F 26.4 °F 30.22 in SSE 5.8 mph 5.8 mph 55% 0.00 in
15:01 41.5 °F 26.5 °F 30.22 in SSE 6.9 mph 6.9 mph 55% 0.00 in
15:11 41.3 °F 26.8 °F 30.22 in South 7.0 mph 7.0 mph 56% 0.00 in
15:16 41.3 °F 26.8 °F 30.22 in SSW 8.1 mph 8.1 mph 56% 0.00 in
15:21 41.4 °F 26.9 °F 30.22 in SSE 9.2 mph 9.2 mph 56% 0.00 in
15:26 41.6 °F 27.1 °F 30.22 in South 10.0 mph 10.0 mph 56% 0.00 in
15:31 41.7 °F 26.7 °F 30.22 in SSE 5.8 mph 5.8 mph 55% 0.00 in
15:36 41.8 °F 26.8 °F 30.22 in South 8.0 mph 8.0 mph 55% 0.00 in
15:41 42.1 °F 27.1 °F 30.22 in SSE 8.0 mph 8.0 mph 55% 0.00 in
15:46 42.2 °F 27.2 °F 30.22 in SSW 11.5 mph 11.5 mph 55% 0.00 in
15:51 41.8 °F 26.8 °F 30.22 in SW 7.0 mph 7.0 mph 55% 0.00 in
15:56 41.5 °F 27.0 °F 30.22 in SSW 7.0 mph 7.0 mph 56% 0.00 in
16:01 41.3 °F 26.8 °F 30.22 in South 6.9 mph 6.9 mph 56% 0.00 in
16:06 41.4 °F 26.9 °F 30.22 in SSE 10.4 mph 10.4 mph 56% 0.00 in
16:11 41.2 °F 26.7 °F 30.22 in South 5.8 mph 5.8 mph 56% 0.00 in
16:16 40.8 °F 26.3 °F 30.22 in South 8.0 mph 8.0 mph 56% 0.00 in
16:21 40.4 °F 25.9 °F 30.22 in SSE 8.1 mph 8.1 mph 56% 0.00 in
16:26 40.2 °F 26.2 °F 30.22 in South 5.0 mph 5.0 mph 57% 0.00 in
16:31 40.0 °F 26.0 °F 30.22 in SSW 7.0 mph 7.0 mph 57% 0.00 in
16:36 40.0 °F 26.4 °F 30.22 in South 9.0 mph 9.0 mph 58% 0.00 in
16:41 39.8 °F 26.6 °F 30.22 in SSW 7.0 mph 7.0 mph 59% 0.00 in
16:46 39.9 °F 26.7 °F 30.22 in South 6.0 mph 6.0 mph 59% 0.00 in
16:51 39.8 °F 26.6 °F 30.22 in SSW 9.2 mph 9.2 mph 59% 0.00 in
16:56 39.8 °F 26.6 °F 30.22 in SSW 5.0 mph 5.0 mph 59% 0.00 in
17:01 39.7 °F 26.5 °F 30.22 in SW 6.0 mph 6.0 mph 59% 0.00 in
17:06 39.5 °F 26.3 °F 30.22 in South 8.0 mph 8.0 mph 59% 0.00 in
17:11 39.3 °F 25.7 °F 30.22 in SSW 5.8 mph 5.8 mph 58% 0.00 in
17:16 39.0 °F 25.9 °F 30.22 in South 5.8 mph 5.8 mph 59% 0.00 in
17:21 38.8 °F 25.7 °F 30.22 in SSE 3.5 mph 3.5 mph 59% 0.00 in
17:26 38.5 °F 25.8 °F 30.22 in South 5.0 mph 5.0 mph 60% 0.00 in
17:31 38.3 °F 25.6 °F 30.22 in South 4.6 mph 4.6 mph 60% 0.00 in
17:36 38.1 °F 25.4 °F 30.22 in South 4.6 mph 4.6 mph 60% 0.00 in
17:41 37.9 °F 25.6 °F 30.22 in South 1.2 mph 1.2 mph 61% 0.00 in
17:46 37.7 °F 25.5 °F 30.22 in SSE 1.2 mph   61% 0.00 in
17:51 37.5 °F 25.3 °F 30.22 in SSE 1.2 mph 1.2 mph 61% 0.00 in
17:56 37.4 °F 25.2 °F 30.22 in Calm     61% 0.00 in
18:01 37.1 °F 25.3 °F 30.23 in Calm     62% 0.00 in
18:06 36.9 °F 25.1 °F 30.23 in Calm     62% 0.00 in
18:11 36.6 °F 25.2 °F 30.23 in Calm     63% 0.00 in
18:16 36.4 °F 25.0 °F 30.23 in Calm     63% 0.00 in
18:21 36.1 °F 25.1 °F 30.23 in Calm     64% 0.00 in
18:26 35.9 °F 24.9 °F 30.23 in Calm     64% 0.00 in
18:31 35.6 °F 25.0 °F 30.23 in Calm     65% 0.00 in
18:36 35.3 °F 24.7 °F 30.23 in Calm     65% 0.00 in
18:46 34.8 °F 24.6 °F 30.23 in Calm     66% 0.00 in
18:51 34.4 °F 24.6 °F 30.23 in Calm     67% 0.00 in
18:56 34.3 °F 24.5 °F 30.23 in Calm     67% 0.00 in
19:01 33.9 °F 24.4 °F 30.23 in Calm     68% 0.00 in
19:06 33.7 °F 24.6 °F 30.23 in Calm     69% 0.00 in
19:11 33.5 °F 24.4 °F 30.23 in Calm     69% 0.00 in
19:16 33.4 °F 24.7 °F 30.23 in Calm     70% 0.00 in
19:21 33.3 °F 24.2 °F 30.23 in Calm     69% 0.00 in
19:26 33.1 °F 24.0 °F 30.23 in Calm     69% 0.00 in
19:31 32.9 °F 24.2 °F 30.23 in Calm     70% 0.00 in
19:36 32.8 °F 24.4 °F 30.23 in Calm     71% 0.00 in
19:41 32.9 °F 24.5 °F 30.23 in Calm     71% 0.00 in
19:46 33.0 °F 24.6 °F 30.23 in Calm     71% 0.00 in
19:51 33.0 °F 24.6 °F 30.23 in Calm     71% 0.00 in
19:56 32.9 °F 24.5 °F 30.23 in Calm     71% 0.00 in
20:01 32.7 °F 24.7 °F 30.23 in Calm     72% 0.00 in
20:06 32.5 °F 24.5 °F 30.23 in Calm     72% 0.00 in
20:11 32.2 °F 24.2 °F 30.24 in Calm     72% 0.00 in
20:16 31.9 °F 23.9 °F 30.24 in Calm     72% 0.00 in
20:21 31.6 °F 23.9 °F 30.24 in Calm     73% 0.00 in
20:26 31.2 °F 23.9 °F 30.24 in Calm     74% 0.00 in
20:31 30.8 °F 23.8 °F 30.24 in Calm     75% 0.00 in
20:36 30.4 °F 23.7 °F 30.23 in Calm     76% 0.00 in
20:41 30.1 °F 23.8 °F 30.23 in Calm     77% 0.00 in
20:46 29.9 °F 23.9 °F 30.23 in Calm     78% 0.00 in
20:51 29.7 °F 23.7 °F 30.23 in Calm     78% 0.00 in
20:56 29.5 °F 23.5 °F 30.24 in Calm     78% 0.00 in
21:01 29.4 °F 23.7 °F 30.24 in Calm     79% 0.00 in
21:06 29.3 °F 23.6 °F 30.24 in Calm     79% 0.00 in
21:11 29.1 °F 23.4 °F 30.24 in Calm     79% 0.00 in
21:16 29.0 °F 23.3 °F 30.24 in SSE 1.0 mph 1.0 mph 79% 0.00 in
21:21 29.0 °F 23.6 °F 30.24 in Calm     80% 0.00 in
21:26 29.0 °F 23.6 °F 30.23 in Calm     80% 0.00 in
21:31 29.2 °F 23.8 °F 30.23 in Calm     80% 0.00 in
21:36 29.4 °F 24.0 °F 30.24 in Calm     80% 0.00 in
21:41 29.5 °F 23.8 °F 30.23 in Calm     79% 0.00 in
21:46 29.6 °F 23.9 °F 30.23 in Calm     79% 0.00 in
21:51 29.7 °F 23.7 °F 30.23 in Calm     78% 0.00 in
21:56 29.7 °F 23.7 °F 30.23 in Calm     78% 0.00 in
22:01 29.6 °F 23.6 °F 30.23 in Calm     78% 0.00 in
22:06 29.6 °F 23.6 °F 30.23 in Calm     78% 0.00 in
22:16 29.6 °F 23.3 °F 30.23 in SSE 1.0 mph   77% 0.00 in
22:21 29.4 °F 23.4 °F 30.22 in Calm     78% 0.00 in
22:26 29.1 °F 23.4 °F 30.23 in Calm     79% 0.00 in
Mechanicsburg,PA USA
Compliments of Weather Underground